Terminal Aerodrome Forecast
Issued by NWS Oklahoma City, OK

Home | Current Version | Previous Version | Text Only | Print | Product List | Glossary On
Versions: 1 2 3 4 5 6 7 8 9 10 11 12 13 14 15
000
FTUS44 KOUN 200520
TAFOUN
TAF
KOUN 200520Z 2006/2106 17006KT P6SM BKN250
      TEMPO 2010/2014 2SM BR SCT005
     FM201600 22015G21KT P6SM SCT250=

USA.gov is the U.S. government's official web portal to all federal, state and local government web resources and services.